sensor_id;sensor_type;location;lat;lon;timestamp;temperature;humidity
18175;DHT22;9212;50.894;16.714;2022-12-13T00:02:06;-3.10;99.90
18175;DHT22;9212;50.894;16.714;2022-12-13T00:04:33;-3.10;99.90
18175;DHT22;9212;50.894;16.714;2022-12-13T00:07:00;-3.10;99.90
18175;DHT22;9212;50.894;16.714;2022-12-13T00:09:27;-3.10;99.90
18175;DHT22;9212;50.894;16.714;2022-12-13T00:11:55;-3.10;99.90
18175;DHT22;9212;50.894;16.714;2022-12-13T00:14:22;-3.10;99.90
18175;DHT22;9212;50.894;16.714;2022-12-13T00:16:49;-3.20;99.90
18175;DHT22;9212;50.894;16.714;2022-12-13T00:19:17;-3.00;99.90
18175;DHT22;9212;50.894;16.714;2022-12-13T00:21:44;-3.20;99.90
18175;DHT22;9212;50.894;16.714;2022-12-13T00:24:11;-3.20;99.90
18175;DHT22;9212;50.894;16.714;2022-12-13T00:26:39;-3.10;99.90
18175;DHT22;9212;50.894;16.714;2022-12-13T00:29:09;-3.20;99.90
18175;DHT22;9212;50.894;16.714;2022-12-13T00:31:36;-3.10;99.90
18175;DHT22;9212;50.894;16.714;2022-12-13T00:34:03;-3.20;99.90
18175;DHT22;9212;50.894;16.714;2022-12-13T00:38:57;-3.20;99.90
18175;DHT22;9212;50.894;16.714;2022-12-13T00:41:29;-3.10;99.90
18175;DHT22;9212;50.894;16.714;2022-12-13T00:43:57;-3.20;99.90
18175;DHT22;9212;50.894;16.714;2022-12-13T00:46:26;-3.20;99.90
18175;DHT22;9212;50.894;16.714;2022-12-13T00:48:55;-3.20;99.90
18175;DHT22;9212;50.894;16.714;2022-12-13T00:51:23;-3.90;99.90
18175;DHT22;9212;50.894;16.714;2022-12-13T00:53:50;-3.20;99.90
18175;DHT22;9212;50.894;16.714;2022-12-13T00:56:19;-3.10;99.90
18175;DHT22;9212;50.894;16.714;2022-12-13T00:58:46;-3.30;99.90
18175;DHT22;9212;50.894;16.714;2022-12-13T01:01:16;-2.90;99.90
18175;DHT22;9212;50.894;16.714;2022-12-13T01:03:45;-3.10;99.90
18175;DHT22;9212;50.894;16.714;2022-12-13T01:06:17;-3.20;99.90
18175;DHT22;9212;50.894;16.714;2022-12-13T01:08:45;-3.20;99.90
18175;DHT22;9212;50.894;16.714;2022-12-13T01:11:12;-2.80;99.90
18175;DHT22;9212;50.894;16.714;2022-12-13T01:13:40;-2.90;99.90
18175;DHT22;9212;50.894;16.714;2022-12-13T01:16:08;-3.50;99.90
18175;DHT22;9212;50.894;16.714;2022-12-13T01:18:36;-3.40;99.90
18175;DHT22;9212;50.894;16.714;2022-12-13T01:21:06;-3.30;99.90
18175;DHT22;9212;50.894;16.714;2022-12-13T01:23:33;-2.50;99.90
18175;DHT22;9212;50.894;16.714;2022-12-13T01:26:01;-3.50;99.90
18175;DHT22;9212;50.894;16.714;2022-12-13T01:30:57;-3.40;99.90
18175;DHT22;9212;50.894;16.714;2022-12-13T01:33:24;-3.30;99.90
18175;DHT22;9212;50.894;16.714;2022-12-13T01:35:52;-3.30;99.90
18175;DHT22;9212;50.894;16.714;2022-12-13T01:40:50;-3.30;99.90
18175;DHT22;9212;50.894;16.714;2022-12-13T01:43:23;-3.40;99.90
18175;DHT22;9212;50.894;16.714;2022-12-13T01:45:50;-3.30;99.90
18175;DHT22;9212;50.894;16.714;2022-12-13T01:48:21;-3.40;99.90
18175;DHT22;9212;50.894;16.714;2022-12-13T01:50:52;-3.20;99.90
18175;DHT22;9212;50.894;16.714;2022-12-13T01:53:25;-3.30;99.90
18175;DHT22;9212;50.894;16.714;2022-12-13T01:55:55;-3.30;99.90
18175;DHT22;9212;50.894;16.714;2022-12-13T01:58:23;-3.70;99.90
18175;DHT22;9212;50.894;16.714;2022-12-13T02:00:51;-3.80;99.90
18175;DHT22;9212;50.894;16.714;2022-12-13T02:03:20;-3.30;99.90
18175;DHT22;9212;50.894;16.714;2022-12-13T02:05:52;-3.50;99.90
18175;DHT22;9212;50.894;16.714;2022-12-13T02:08:21;-3.10;99.90
18175;DHT22;9212;50.894;16.714;2022-12-13T02:10:49;-3.40;99.90
18175;DHT22;9212;50.894;16.714;2022-12-13T02:13:16;-3.00;99.90
18175;DHT22;9212;50.894;16.714;2022-12-13T02:15:49;-3.70;99.90
18175;DHT22;9212;50.894;16.714;2022-12-13T02:18:34;-3.30;99.90
18175;DHT22;9212;50.894;16.714;2022-12-13T02:21:17;-3.50;99.90
18175;DHT22;9212;50.894;16.714;2022-12-13T02:27:08;-3.50;99.90
18175;DHT22;9212;50.894;16.714;2022-12-13T02:32:50;-3.50;99.90
18175;DHT22;9212;50.894;16.714;2022-12-13T02:35:22;-2.80;99.90
18175;DHT22;9212;50.894;16.714;2022-12-13T02:37:58;-3.70;99.90
18175;DHT22;9212;50.894;16.714;2022-12-13T02:40:30;-3.60;99.90
18175;DHT22;9212;50.894;16.714;2022-12-13T02:43:00;-3.70;99.90
18175;DHT22;9212;50.894;16.714;2022-12-13T02:45:31;-3.70;99.90
18175;DHT22;9212;50.894;16.714;2022-12-13T02:48:03;-3.80;99.90
18175;DHT22;9212;50.894;16.714;2022-12-13T02:50:32;-3.90;99.90
18175;DHT22;9212;50.894;16.714;2022-12-13T02:53:00;-3.90;99.90
18175;DHT22;9212;50.894;16.714;2022-12-13T02:55:27;-3.70;99.90
18175;DHT22;9212;50.894;16.714;2022-12-13T02:57:56;-4.10;99.90
18175;DHT22;9212;50.894;16.714;2022-12-13T03:00:32;-4.20;99.90
18175;DHT22;9212;50.894;16.714;2022-12-13T03:03:11;-4.10;99.90
18175;DHT22;9212;50.894;16.714;2022-12-13T03:05:47;-4.10;99.90
18175;DHT22;9212;50.894;16.714;2022-12-13T03:08:46;-3.60;99.90
18175;DHT22;9212;50.894;16.714;2022-12-13T03:11:17;-3.50;99.90
18175;DHT22;9212;50.894;16.714;2022-12-13T03:13:50;-4.30;99.90
18175;DHT22;9212;50.894;16.714;2022-12-13T03:16:23;-4.30;99.90
18175;DHT22;9212;50.894;16.714;2022-12-13T03:18:53;-4.50;99.90
18175;DHT22;9212;50.894;16.714;2022-12-13T03:21:22;-4.90;99.90
18175;DHT22;9212;50.894;16.714;2022-12-13T03:23:50;-4.50;99.90
18175;DHT22;9212;50.894;16.714;2022-12-13T03:26:20;-4.70;99.90
18175;DHT22;9212;50.894;16.714;2022-12-13T03:28:47;-4.70;99.90
18175;DHT22;9212;50.894;16.714;2022-12-13T03:31:14;-4.80;99.90
18175;DHT22;9212;50.894;16.714;2022-12-13T03:33:41;-4.80;99.90
18175;DHT22;9212;50.894;16.714;2022-12-13T03:36:11;-4.70;99.90
18175;DHT22;9212;50.894;16.714;2022-12-13T03:38:38;-4.60;99.90
18175;DHT22;9212;50.894;16.714;2022-12-13T03:41:08;-4.40;99.90
18175;DHT22;9212;50.894;16.714;2022-12-13T03:43:36;-4.60;99.90
18175;DHT22;9212;50.894;16.714;2022-12-13T03:46:04;-4.20;99.90
18175;DHT22;9212;50.894;16.714;2022-12-13T03:48:31;-4.10;99.90
18175;DHT22;9212;50.894;16.714;2022-12-13T03:50:58;-4.30;99.90
18175;DHT22;9212;50.894;16.714;2022-12-13T03:53:26;-4.20;99.90
18175;DHT22;9212;50.894;16.714;2022-12-13T03:55:53;-4.30;99.90
18175;DHT22;9212;50.894;16.714;2022-12-13T03:58:21;-4.40;99.90
18175;DHT22;9212;50.894;16.714;2022-12-13T04:00:48;-4.50;99.90
18175;DHT22;9212;50.894;16.714;2022-12-13T04:03:15;-4.20;99.90
18175;DHT22;9212;50.894;16.714;2022-12-13T04:05:41;-4.30;99.90
18175;DHT22;9212;50.894;16.714;2022-12-13T04:08:08;-4.30;99.90
18175;DHT22;9212;50.894;16.714;2022-12-13T04:10:37;-4.20;99.90
18175;DHT22;9212;50.894;16.714;2022-12-13T04:13:04;-3.70;99.90
18175;DHT22;9212;50.894;16.714;2022-12-13T04:15:48;-4.00;99.90
18175;DHT22;9212;50.894;16.714;2022-12-13T04:18:15;-4.00;99.90
18175;DHT22;9212;50.894;16.714;2022-12-13T04:20:42;-3.60;99.90
18175;DHT22;9212;50.894;16.714;2022-12-13T04:23:10;-4.00;99.90
18175;DHT22;9212;50.894;16.714;2022-12-13T04:25:39;-3.90;99.90
18175;DHT22;9212;50.894;16.714;2022-12-13T04:28:07;-3.90;99.90
18175;DHT22;9212;50.894;16.714;2022-12-13T04:30:34;-4.30;99.90
18175;DHT22;9212;50.894;16.714;2022-12-13T04:33:02;-4.00;99.90
18175;DHT22;9212;50.894;16.714;2022-12-13T04:35:29;-3.40;99.90
18175;DHT22;9212;50.894;16.714;2022-12-13T04:37:56;-4.30;99.90
18175;DHT22;9212;50.894;16.714;2022-12-13T04:40:23;-3.90;99.90
18175;DHT22;9212;50.894;16.714;2022-12-13T04:42:51;-3.90;99.90
18175;DHT22;9212;50.894;16.714;2022-12-13T04:45:19;-3.20;99.90
18175;DHT22;9212;50.894;16.714;2022-12-13T04:47:47;-3.90;99.90
18175;DHT22;9212;50.894;16.714;2022-12-13T04:50:14;-3.80;99.90
18175;DHT22;9212;50.894;16.714;2022-12-13T04:52:41;-3.80;99.90
18175;DHT22;9212;50.894;16.714;2022-12-13T04:55:09;-3.80;99.90
18175;DHT22;9212;50.894;16.714;2022-12-13T04:57:36;-3.80;99.90
18175;DHT22;9212;50.894;16.714;2022-12-13T05:00:07;-3.70;99.90
18175;DHT22;9212;50.894;16.714;2022-12-13T05:02:34;-3.80;99.90
18175;DHT22;9212;50.894;16.714;2022-12-13T05:05:02;-3.80;99.90
18175;DHT22;9212;50.894;16.714;2022-12-13T05:07:29;-3.80;99.90
18175;DHT22;9212;50.894;16.714;2022-12-13T05:09:55;-3.90;99.90
18175;DHT22;9212;50.894;16.714;2022-12-13T05:12:22;-3.80;99.90
18175;DHT22;9212;50.894;16.714;2022-12-13T05:14:50;-3.70;99.90
18175;DHT22;9212;50.894;16.714;2022-12-13T05:17:18;-3.80;99.90
18175;DHT22;9212;50.894;16.714;2022-12-13T05:19:45;-3.70;99.90
18175;DHT22;9212;50.894;16.714;2022-12-13T05:22:12;-4.30;99.90
18175;DHT22;9212;50.894;16.714;2022-12-13T05:24:41;-3.80;99.90
18175;DHT22;9212;50.894;16.714;2022-12-13T05:27:09;-3.80;99.90
18175;DHT22;9212;50.894;16.714;2022-12-13T05:29:37;-3.70;99.90
18175;DHT22;9212;50.894;16.714;2022-12-13T05:32:04;-3.90;99.90
18175;DHT22;9212;50.894;16.714;2022-12-13T05:34:32;-3.70;99.90
18175;DHT22;9212;50.894;16.714;2022-12-13T05:36:59;-3.70;99.90
18175;DHT22;9212;50.894;16.714;2022-12-13T05:39:26;-3.70;99.90
18175;DHT22;9212;50.894;16.714;2022-12-13T05:44:21;-3.70;99.90
18175;DHT22;9212;50.894;16.714;2022-12-13T05:46:48;-3.70;99.90
18175;DHT22;9212;50.894;16.714;2022-12-13T05:49:15;-4.00;99.90
18175;DHT22;9212;50.894;16.714;2022-12-13T05:51:43;-4.20;99.90
18175;DHT22;9212;50.894;16.714;2022-12-13T05:54:10;-4.20;99.90
18175;DHT22;9212;50.894;16.714;2022-12-13T05:56:37;-3.60;99.90
18175;DHT22;9212;50.894;16.714;2022-12-13T05:59:04;-3.70;99.90
18175;DHT22;9212;50.894;16.714;2022-12-13T06:01:31;-4.30;99.90
18175;DHT22;9212;50.894;16.714;2022-12-13T06:06:25;-3.70;99.90
18175;DHT22;9212;50.894;16.714;2022-12-13T06:08:53;-3.60;99.90
18175;DHT22;9212;50.894;16.714;2022-12-13T06:11:20;-3.40;99.90
18175;DHT22;9212;50.894;16.714;2022-12-13T06:13:49;-3.50;99.90
18175;DHT22;9212;50.894;16.714;2022-12-13T06:16:17;-3.50;99.90
18175;DHT22;9212;50.894;16.714;2022-12-13T06:18:44;-3.70;99.90
18175;DHT22;9212;50.894;16.714;2022-12-13T06:26:07;-3.50;99.90
18175;DHT22;9212;50.894;16.714;2022-12-13T06:28:34;-4.10;99.90
18175;DHT22;9212;50.894;16.714;2022-12-13T06:31:02;-3.60;99.90
18175;DHT22;9212;50.894;16.714;2022-12-13T06:38:27;-3.50;99.90
18175;DHT22;9212;50.894;16.714;2022-12-13T06:40:54;-3.60;99.90
18175;DHT22;9212;50.894;16.714;2022-12-13T06:43:22;-3.60;99.90
18175;DHT22;9212;50.894;16.714;2022-12-13T06:45:49;-3.70;99.90
18175;DHT22;9212;50.894;16.714;2022-12-13T06:48:16;-3.50;99.90
18175;DHT22;9212;50.894;16.714;2022-12-13T06:53:11;-3.60;99.90
18175;DHT22;9212;50.894;16.714;2022-12-13T06:55:37;-3.40;99.90
18175;DHT22;9212;50.894;16.714;2022-12-13T07:00:33;-3.60;99.90
18175;DHT22;9212;50.894;16.714;2022-12-13T07:03:00;-2.30;99.90
18175;DHT22;9212;50.894;16.714;2022-12-13T07:05:27;-3.60;99.90
18175;DHT22;9212;50.894;16.714;2022-12-13T07:07:54;-3.60;99.90
18175;DHT22;9212;50.894;16.714;2022-12-13T07:10:21;-3.60;99.90
18175;DHT22;9212;50.894;16.714;2022-12-13T07:12:48;-3.60;99.90
18175;DHT22;9212;50.894;16.714;2022-12-13T07:15:15;-3.70;99.90
18175;DHT22;9212;50.894;16.714;2022-12-13T07:17:44;-3.70;99.90
18175;DHT22;9212;50.894;16.714;2022-12-13T07:20:14;-3.60;99.90
18175;DHT22;9212;50.894;16.714;2022-12-13T07:25:09;-3.40;99.90
18175;DHT22;9212;50.894;16.714;2022-12-13T07:27:36;-3.10;99.90
18175;DHT22;9212;50.894;16.714;2022-12-13T07:30:04;-3.20;99.90
18175;DHT22;9212;50.894;16.714;2022-12-13T07:32:31;-3.20;99.90
18175;DHT22;9212;50.894;16.714;2022-12-13T07:35:00;-3.30;99.90
18175;DHT22;9212;50.894;16.714;2022-12-13T07:37:27;-3.40;99.90
18175;DHT22;9212;50.894;16.714;2022-12-13T07:39:54;-3.50;99.90
18175;DHT22;9212;50.894;16.714;2022-12-13T07:42:21;-2.30;99.90
18175;DHT22;9212;50.894;16.714;2022-12-13T07:44:48;-3.30;99.90
18175;DHT22;9212;50.894;16.714;2022-12-13T07:47:14;-3.10;99.90
18175;DHT22;9212;50.894;16.714;2022-12-13T07:49:41;-2.90;99.90
18175;DHT22;9212;50.894;16.714;2022-12-13T07:52:11;-2.90;99.90
18175;DHT22;9212;50.894;16.714;2022-12-13T07:54:38;-2.30;99.90
18175;DHT22;9212;50.894;16.714;2022-12-13T07:57:05;-3.00;99.90
18175;DHT22;9212;50.894;16.714;2022-12-13T07:59:32;-2.90;99.90
18175;DHT22;9212;50.894;16.714;2022-12-13T08:01:59;-2.90;99.90
18175;DHT22;9212;50.894;16.714;2022-12-13T08:04:26;-3.10;99.90
18175;DHT22;9212;50.894;16.714;2022-12-13T08:09:22;-3.20;99.90
18175;DHT22;9212;50.894;16.714;2022-12-13T08:11:49;-1.90;99.90
18175;DHT22;9212;50.894;16.714;2022-12-13T08:14:16;-2.90;99.90
18175;DHT22;9212;50.894;16.714;2022-12-13T08:16:43;-2.80;99.90
18175;DHT22;9212;50.894;16.714;2022-12-13T08:21:38;-2.80;99.90
18175;DHT22;9212;50.894;16.714;2022-12-13T08:24:06;-2.80;99.90
18175;DHT22;9212;50.894;16.714;2022-12-13T08:29:02;-2.50;99.90
18175;DHT22;9212;50.894;16.714;2022-12-13T08:31:29;-2.50;99.90
18175;DHT22;9212;50.894;16.714;2022-12-13T08:36:23;-3.20;99.90
18175;DHT22;9212;50.894;16.714;2022-12-13T08:38:53;-1.70;99.90
18175;DHT22;9212;50.894;16.714;2022-12-13T08:41:20;-3.30;99.90
18175;DHT22;9212;50.894;16.714;2022-12-13T08:51:12;-1.60;99.90
18175;DHT22;9212;50.894;16.714;2022-12-13T08:53:42;-1.20;99.90
18175;DHT22;9212;50.894;16.714;2022-12-13T08:56:10;-2.40;99.90
18175;DHT22;9212;50.894;16.714;2022-12-13T08:58:38;-2.10;99.90
18175;DHT22;9212;50.894;16.714;2022-12-13T09:01:06;-2.00;99.90
18175;DHT22;9212;50.894;16.714;2022-12-13T09:03:34;-2.20;99.90
18175;DHT22;9212;50.894;16.714;2022-12-13T09:06:12;-2.20;99.90
18175;DHT22;9212;50.894;16.714;2022-12-13T09:08:40;-2.20;99.90
18175;DHT22;9212;50.894;16.714;2022-12-13T09:11:07;-2.20;99.90
18175;DHT22;9212;50.894;16.714;2022-12-13T09:13:36;-2.50;99.90
18175;DHT22;9212;50.894;16.714;2022-12-13T09:16:04;-2.40;99.90
18175;DHT22;9212;50.894;16.714;2022-12-13T09:21:04;-2.40;99.90
18175;DHT22;9212;50.894;16.714;2022-12-13T09:23:31;-2.50;99.90
18175;DHT22;9212;50.894;16.714;2022-12-13T09:25:58;-2.10;99.90
18175;DHT22;9212;50.894;16.714;2022-12-13T09:28:26;-2.60;99.90
18175;DHT22;9212;50.894;16.714;2022-12-13T09:33:21;-1.60;99.90
18175;DHT22;9212;50.894;16.714;2022-12-13T09:35:50;-2.50;99.90
18175;DHT22;9212;50.894;16.714;2022-12-13T09:38:17;-2.40;99.90
18175;DHT22;9212;50.894;16.714;2022-12-13T09:40:47;-2.50;99.90
18175;DHT22;9212;50.894;16.714;2022-12-13T09:43:20;-2.50;99.90
18175;DHT22;9212;50.894;16.714;2022-12-13T09:45:49;-2.60;99.90
18175;DHT22;9212;50.894;16.714;2022-12-13T09:48:17;-2.40;99.90
18175;DHT22;9212;50.894;16.714;2022-12-13T09:53:16;-2.40;99.90
18175;DHT22;9212;50.894;16.714;2022-12-13T09:55:46;-2.60;99.90
18175;DHT22;9212;50.894;16.714;2022-12-13T09:58:16;-2.40;99.90
18175;DHT22;9212;50.894;16.714;2022-12-13T10:00:46;-2.40;99.90
18175;DHT22;9212;50.894;16.714;2022-12-13T10:03:15;-2.40;99.90
18175;DHT22;9212;50.894;16.714;2022-12-13T10:05:44;-2.50;99.90
18175;DHT22;9212;50.894;16.714;2022-12-13T10:08:15;-2.80;99.90
18175;DHT22;9212;50.894;16.714;2022-12-13T10:13:15;-2.20;99.90
18175;DHT22;9212;50.894;16.714;2022-12-13T10:15:47;-2.30;99.90
18175;DHT22;9212;50.894;16.714;2022-12-13T10:18:24;-2.30;99.90
18175;DHT22;9212;50.894;16.714;2022-12-13T10:20:52;-2.10;99.90
18175;DHT22;9212;50.894;16.714;2022-12-13T10:23:21;-2.20;99.90
18175;DHT22;9212;50.894;16.714;2022-12-13T10:25:51;-1.90;99.90
18175;DHT22;9212;50.894;16.714;2022-12-13T10:28:25;-1.40;99.90
18175;DHT22;9212;50.894;16.714;2022-12-13T10:30:53;-1.90;99.90
18175;DHT22;9212;50.894;16.714;2022-12-13T10:33:24;-1.50;99.90
18175;DHT22;9212;50.894;16.714;2022-12-13T10:36:10;-1.20;99.90
18175;DHT22;9212;50.894;16.714;2022-12-13T10:38:42;-0.50;99.90
18175;DHT22;9212;50.894;16.714;2022-12-13T10:41:31;-0.40;99.90
18175;DHT22;9212;50.894;16.714;2022-12-13T10:44:19;-0.20;99.90
18175;DHT22;9212;50.894;16.714;2022-12-13T10:46:49;-0.10;99.90
18175;DHT22;9212;50.894;16.714;2022-12-13T10:49:18;-0.30;99.90
18175;DHT22;9212;50.894;16.714;2022-12-13T10:54:24;-0.60;99.90
18175;DHT22;9212;50.894;16.714;2022-12-13T10:56:52;-0.80;99.90
18175;DHT22;9212;50.894;16.714;2022-12-13T10:59:29;-1.30;99.90
18175;DHT22;9212;50.894;16.714;2022-12-13T11:01:57;-1.10;99.90
18175;DHT22;9212;50.894;16.714;2022-12-13T11:04:28;-1.40;99.90
18175;DHT22;9212;50.894;16.714;2022-12-13T11:06:57;-1.30;99.90
18175;DHT22;9212;50.894;16.714;2022-12-13T11:09:28;-1.70;99.90
18175;DHT22;9212;50.894;16.714;2022-12-13T11:11:56;-1.60;99.90
18175;DHT22;9212;50.894;16.714;2022-12-13T11:14:26;-1.60;99.90
18175;DHT22;9212;50.894;16.714;2022-12-13T11:16:55;-1.10;99.90
18175;DHT22;9212;50.894;16.714;2022-12-13T11:19:29;-1.20;99.90
18175;DHT22;9212;50.894;16.714;2022-12-13T11:21:58;-1.00;99.90
18175;DHT22;9212;50.894;16.714;2022-12-13T11:24:30;-1.30;99.90
18175;DHT22;9212;50.894;16.714;2022-12-13T11:27:03;-1.20;99.90
18175;DHT22;9212;50.894;16.714;2022-12-13T11:29:42;-1.00;99.90
18175;DHT22;9212;50.894;16.714;2022-12-13T11:32:16;-1.00;99.90
18175;DHT22;9212;50.894;16.714;2022-12-13T11:34:53;-1.20;99.90
18175;DHT22;9212;50.894;16.714;2022-12-13T11:37:27;-1.30;99.90
18175;DHT22;9212;50.894;16.714;2022-12-13T11:39:59;-1.10;99.90
18175;DHT22;9212;50.894;16.714;2022-12-13T11:42:30;-1.90;99.90
18175;DHT22;9212;50.894;16.714;2022-12-13T11:45:04;-1.30;99.90
18175;DHT22;9212;50.894;16.714;2022-12-13T11:47:38;-1.20;99.90
18175;DHT22;9212;50.894;16.714;2022-12-13T11:50:14;-1.40;99.90
18175;DHT22;9212;50.894;16.714;2022-12-13T11:52:45;-1.20;99.90
18175;DHT22;9212;50.894;16.714;2022-12-13T11:55:18;-1.10;99.90
18175;DHT22;9212;50.894;16.714;2022-12-13T11:57:53;-1.40;99.90
18175;DHT22;9212;50.894;16.714;2022-12-13T12:00:29;-0.90;99.90
18175;DHT22;9212;50.894;16.714;2022-12-13T12:03:05;-0.80;99.90
18175;DHT22;9212;50.894;16.714;2022-12-13T12:05:35;-1.50;99.90
18175;DHT22;9212;50.894;16.714;2022-12-13T12:08:08;-0.90;99.90
18175;DHT22;9212;50.894;16.714;2022-12-13T12:10:41;-0.90;99.90
18175;DHT22;9212;50.894;16.714;2022-12-13T12:13:15;-0.70;99.90
18175;DHT22;9212;50.894;16.714;2022-12-13T12:15:49;0.70;99.90
18175;DHT22;9212;50.894;16.714;2022-12-13T12:20:59;-0.70;99.90
18175;DHT22;9212;50.894;16.714;2022-12-13T12:23:39;-0.60;99.90
18175;DHT22;9212;50.894;16.714;2022-12-13T12:26:14;-0.50;99.90
18175;DHT22;9212;50.894;16.714;2022-12-13T12:28:59;-0.20;99.90
18175;DHT22;9212;50.894;16.714;2022-12-13T12:31:38;-0.40;99.90
18175;DHT22;9212;50.894;16.714;2022-12-13T12:34:14;-0.60;99.90
18175;DHT22;9212;50.894;16.714;2022-12-13T12:36:49;-1.00;99.90
18175;DHT22;9212;50.894;16.714;2022-12-13T12:39:48;-0.40;99.90
18175;DHT22;9212;50.894;16.714;2022-12-13T12:42:33;-0.60;99.90
18175;DHT22;9212;50.894;16.714;2022-12-13T12:45:30;-0.40;99.90
18175;DHT22;9212;50.894;16.714;2022-12-13T12:48:07;-1.10;99.90
18175;DHT22;9212;50.894;16.714;2022-12-13T12:50:43;-0.80;99.90
18175;DHT22;9212;50.894;16.714;2022-12-13T12:53:28;-0.60;99.90
18175;DHT22;9212;50.894;16.714;2022-12-13T12:56:12;-0.90;99.90
18175;DHT22;9212;50.894;16.714;2022-12-13T12:58:48;-1.30;99.90
18175;DHT22;9212;50.894;16.714;2022-12-13T13:01:28;-1.30;99.90
18175;DHT22;9212;50.894;16.714;2022-12-13T13:04:00;-1.40;99.90
18175;DHT22;9212;50.894;16.714;2022-12-13T13:06:32;-1.30;99.90
18175;DHT22;9212;50.894;16.714;2022-12-13T13:09:02;-1.40;99.90
18175;DHT22;9212;50.894;16.714;2022-12-13T13:11:36;-1.50;99.90
18175;DHT22;9212;50.894;16.714;2022-12-13T13:14:28;-1.50;99.90
18175;DHT22;9212;50.894;16.714;2022-12-13T13:16:56;-2.40;99.90
18175;DHT22;9212;50.894;16.714;2022-12-13T13:19:42;-1.60;99.90
18175;DHT22;9212;50.894;16.714;2022-12-13T13:22:30;-1.80;99.90
18175;DHT22;9212;50.894;16.714;2022-12-13T13:28:04;-1.80;99.90
18175;DHT22;9212;50.894;16.714;2022-12-13T13:30:33;-1.90;99.90
18175;DHT22;9212;50.894;16.714;2022-12-13T13:33:01;-2.00;99.90
18175;DHT22;9212;50.894;16.714;2022-12-13T13:35:49;-2.00;99.90
18175;DHT22;9212;50.894;16.714;2022-12-13T13:38:49;-2.00;99.90
18175;DHT22;9212;50.894;16.714;2022-12-13T13:41:40;-2.10;99.90
18175;DHT22;9212;50.894;16.714;2022-12-13T13:47:38;-2.20;99.90
18175;DHT22;9212;50.894;16.714;2022-12-13T13:54:03;-2.70;99.90
18175;DHT22;9212;50.894;16.714;2022-12-13T13:57:09;-2.90;99.90
18175;DHT22;9212;50.894;16.714;2022-12-13T14:00:08;-3.10;99.90
18175;DHT22;9212;50.894;16.714;2022-12-13T14:06:18;-3.50;99.90
18175;DHT22;9212;50.894;16.714;2022-12-13T14:12:35;-3.40;99.90
18175;DHT22;9212;50.894;16.714;2022-12-13T14:15:50;-3.60;99.90
18175;DHT22;9212;50.894;16.714;2022-12-13T14:21:39;-7.50;99.90
18175;DHT22;9212;50.894;16.714;2022-12-13T14:24:19;-3.90;99.90
18175;DHT22;9212;50.894;16.714;2022-12-13T14:27:08;-4.10;99.90
18175;DHT22;9212;50.894;16.714;2022-12-13T14:29:39;-4.20;99.90
18175;DHT22;9212;50.894;16.714;2022-12-13T14:32:09;-3.70;99.90
18175;DHT22;9212;50.894;16.714;2022-12-13T14:37:20;-4.70;99.90
18175;DHT22;9212;50.894;16.714;2022-12-13T14:39:52;-5.20;99.90
18175;DHT22;9212;50.894;16.714;2022-12-13T14:42:23;-5.10;99.90
18175;DHT22;9212;50.894;16.714;2022-12-13T14:44:52;-5.10;99.90
18175;DHT22;9212;50.894;16.714;2022-12-13T14:47:20;-5.40;99.90
18175;DHT22;9212;50.894;16.714;2022-12-13T14:49:52;-5.50;99.90
18175;DHT22;9212;50.894;16.714;2022-12-13T14:52:26;-5.60;99.90
18175;DHT22;9212;50.894;16.714;2022-12-13T14:54:56;-5.90;99.90
18175;DHT22;9212;50.894;16.714;2022-12-13T14:57:27;-5.40;99.90
18175;DHT22;9212;50.894;16.714;2022-12-13T14:59:56;-6.10;99.90
18175;DHT22;9212;50.894;16.714;2022-12-13T15:02:28;-6.10;99.90
18175;DHT22;9212;50.894;16.714;2022-12-13T15:04:57;-5.90;99.90
18175;DHT22;9212;50.894;16.714;2022-12-13T15:07:27;-6.20;99.90
18175;DHT22;9212;50.894;16.714;2022-12-13T15:09:59;-6.20;99.90
18175;DHT22;9212;50.894;16.714;2022-12-13T15:14:57;-6.50;99.90
18175;DHT22;9212;50.894;16.714;2022-12-13T15:17:31;-6.60;99.90
18175;DHT22;9212;50.894;16.714;2022-12-13T15:19:59;-6.50;99.90
18175;DHT22;9212;50.894;16.714;2022-12-13T15:22:28;-6.70;99.90
18175;DHT22;9212;50.894;16.714;2022-12-13T15:24:56;-6.70;99.90
18175;DHT22;9212;50.894;16.714;2022-12-13T15:27:24;-6.40;99.90
18175;DHT22;9212;50.894;16.714;2022-12-13T15:29:52;-6.30;99.90
18175;DHT22;9212;50.894;16.714;2022-12-13T15:32:23;-6.00;99.90
18175;DHT22;9212;50.894;16.714;2022-12-13T15:34:50;-5.40;99.90
18175;DHT22;9212;50.894;16.714;2022-12-13T15:37:22;-6.00;99.90
18175;DHT22;9212;50.894;16.714;2022-12-13T15:39:54;-6.20;99.90
18175;DHT22;9212;50.894;16.714;2022-12-13T15:42:28;-6.30;99.90
18175;DHT22;9212;50.894;16.714;2022-12-13T15:44:58;-6.30;99.90
18175;DHT22;9212;50.894;16.714;2022-12-13T15:47:27;-6.50;99.90
18175;DHT22;9212;50.894;16.714;2022-12-13T15:49:56;-6.60;99.90
18175;DHT22;9212;50.894;16.714;2022-12-13T15:52:36;-6.70;99.90
18175;DHT22;9212;50.894;16.714;2022-12-13T15:55:26;-6.80;99.90
18175;DHT22;9212;50.894;16.714;2022-12-13T15:57:58;-6.30;99.90
18175;DHT22;9212;50.894;16.714;2022-12-13T16:00:27;-6.70;99.90
18175;DHT22;9212;50.894;16.714;2022-12-13T16:02:57;-6.70;99.90
18175;DHT22;9212;50.894;16.714;2022-12-13T16:05:30;-6.60;99.90
18175;DHT22;9212;50.894;16.714;2022-12-13T16:08:00;-6.70;99.90
18175;DHT22;9212;50.894;16.714;2022-12-13T16:13:01;-6.20;99.90
18175;DHT22;9212;50.894;16.714;2022-12-13T16:15:30;-6.20;99.90
18175;DHT22;9212;50.894;16.714;2022-12-13T16:18:06;-6.00;99.90
18175;DHT22;9212;50.894;16.714;2022-12-13T16:20:37;-6.10;99.90
18175;DHT22;9212;50.894;16.714;2022-12-13T16:23:04;-5.90;99.90
18175;DHT22;9212;50.894;16.714;2022-12-13T16:25:38;-5.80;99.90
18175;DHT22;9212;50.894;16.714;2022-12-13T16:28:05;-5.30;99.90
18175;DHT22;9212;50.894;16.714;2022-12-13T16:30:59;-6.20;99.90
18175;DHT22;9212;50.894;16.714;2022-12-13T16:33:28;-6.10;99.90
18175;DHT22;9212;50.894;16.714;2022-12-13T16:35:55;-6.30;99.90
18175;DHT22;9212;50.894;16.714;2022-12-13T16:38:23;-6.20;99.90
18175;DHT22;9212;50.894;16.714;2022-12-13T16:40:55;-6.50;99.90
18175;DHT22;9212;50.894;16.714;2022-12-13T16:43:25;-6.70;99.90
18175;DHT22;9212;50.894;16.714;2022-12-13T16:45:54;-6.80;99.90
18175;DHT22;9212;50.894;16.714;2022-12-13T16:50:50;-6.80;99.90
18175;DHT22;9212;50.894;16.714;2022-12-13T16:53:18;-6.70;99.90
18175;DHT22;9212;50.894;16.714;2022-12-13T16:55:46;-7.00;99.90
18175;DHT22;9212;50.894;16.714;2022-12-13T16:58:16;-6.80;99.90
18175;DHT22;9212;50.894;16.714;2022-12-13T17:00:48;-6.90;99.90
18175;DHT22;9212;50.894;16.714;2022-12-13T17:03:15;-7.00;99.90
18175;DHT22;9212;50.894;16.714;2022-12-13T17:05:43;-7.20;99.90
18175;DHT22;9212;50.894;16.714;2022-12-13T17:08:14;-7.10;99.90
18175;DHT22;9212;50.894;16.714;2022-12-13T17:10:43;-7.10;99.90
18175;DHT22;9212;50.894;16.714;2022-12-13T17:13:10;-7.10;99.90
18175;DHT22;9212;50.894;16.714;2022-12-13T17:15:39;-7.10;99.90
18175;DHT22;9212;50.894;16.714;2022-12-13T17:18:06;-7.40;99.90
18175;DHT22;9212;50.894;16.714;2022-12-13T17:20:34;-9.20;99.90
18175;DHT22;9212;50.894;16.714;2022-12-13T17:23:01;-6.60;99.90
18175;DHT22;9212;50.894;16.714;2022-12-13T17:25:30;-7.10;99.90
18175;DHT22;9212;50.894;16.714;2022-12-13T17:27:57;-6.40;99.90
18175;DHT22;9212;50.894;16.714;2022-12-13T17:30:24;-7.50;99.90
18175;DHT22;9212;50.894;16.714;2022-12-13T17:32:59;-7.30;99.90